Time;durP1;ratioP1;P1;durP2;ratioP2;P2;SDS_P1;SDS_P2;PMS_P1;PMS_P2;Temp;Humidity;BMP_temperature;BMP_pressure;BME280_temperature;BME280_humidity;BME280_pressure;Samples;Min_cycle;Max_cycle;Signal;HPM_P1;HPM_P2
2023/02/22 00:01:46;;;;;;;48.60;20.23;;;8.80;99.90;;;;;;5039290;28;20040;-76
2023/02/22 00:04:12;;;;;;;47.53;17.77;;;8.80;99.90;;;;;;5021875;28;20025;-76
2023/02/22 00:06:40;;;;;;;45.42;18.33;;;8.80;99.90;;;;;;5040557;28;20029;-76
2023/02/22 00:09:08;;;;;;;38.85;16.58;;;8.80;99.90;;;;;;5037469;28;20404;-77
2023/02/22 00:11:34;;;;;;;42.08;18.05;;;8.80;99.90;;;;;;5036575;28;20439;-75
2023/02/22 00:14:01;;;;;;;45.88;18.33;;;8.80;99.90;;;;;;5038401;28;20043;-77
2023/02/22 00:16:27;;;;;;;45.85;17.80;;;8.80;99.90;;;;;;5025646;28;20033;-76
2023/02/22 00:18:53;;;;;;;41.92;18.48;;;8.90;99.90;;;;;;5040753;28;20033;-73
2023/02/22 00:21:20;;;;;;;50.80;20.15;;;8.80;99.90;;;;;;5041138;28;20082;-77
2023/02/22 00:23:46;;;;;;;41.88;18.02;;;8.80;99.90;;;;;;5019803;28;20128;-76
2023/02/22 00:26:18;;;;;;;47.88;19.02;;;8.80;99.90;;;;;;5038930;28;20852;-77
2023/02/22 00:28:49;;;;;;;43.53;18.58;;;8.80;99.90;;;;;;5038195;28;20029;-77
2023/02/22 00:31:15;;;;;;;42.33;18.23;;;8.80;99.90;;;;;;5020629;28;20028;-77
2023/02/22 00:33:42;;;;;;;42.60;18.70;;;8.80;99.90;;;;;;5041340;28;20032;-77
2023/02/22 00:36:09;;;;;;;44.45;19.60;;;8.80;99.90;;;;;;5037721;28;20082;-77
2023/02/22 00:38:35;;;;;;;49.08;19.60;;;8.90;99.90;;;;;;5044973;28;20231;-77
2023/02/22 00:41:01;;;;;;;47.15;19.55;;;8.80;99.90;;;;;;5042443;28;20028;-77
2023/02/22 00:43:27;;;;;;;48.85;21.02;;;8.80;99.90;;;;;;5040532;28;20132;-76
2023/02/22 00:45:53;;;;;;;58.03;21.90;;;8.80;99.90;;;;;;5044716;28;20080;-76
2023/02/22 00:48:19;;;;;;;55.65;21.67;;;8.80;99.90;;;;;;5055879;28;20025;-76
2023/02/22 00:50:48;;;;;;;63.55;21.88;;;8.80;99.90;;;;;;5042155;28;20033;-77
2023/02/22 00:53:14;;;;;;;62.00;23.67;;;8.80;99.90;;;;;;5040831;28;20501;-77
2023/02/22 00:55:41;;;;;;;62.33;22.75;;;8.80;99.90;;;;;;5042160;28;20060;-77
2023/02/22 00:58:07;;;;;;;68.03;23.50;;;8.80;99.90;;;;;;5041339;28;20444;-77
2023/02/22 01:00:36;;;;;;;61.78;22.10;;;8.80;99.90;;;;;;5039416;28;20086;-77
2023/02/22 01:03:03;;;;;;;70.93;22.13;;;8.80;99.90;;;;;;5043648;28;20076;-76
2023/02/22 01:05:30;;;;;;;72.78;23.70;;;8.80;99.90;;;;;;5042121;28;20157;-76
2023/02/22 01:07:57;;;;;;;68.43;22.80;;;8.70;99.90;;;;;;5035804;28;20032;-77
2023/02/22 01:10:25;;;;;;;66.80;22.35;;;8.80;99.90;;;;;;5043760;28;20032;-77
2023/02/22 01:12:53;;;;;;;75.30;25.50;;;8.80;99.90;;;;;;5041411;28;20033;-77
2023/02/22 01:15:21;;;;;;;72.93;24.90;;;8.80;99.90;;;;;;5041710;28;20030;-77
2023/02/22 01:17:48;;;;;;;88.80;26.75;;;8.70;99.90;;;;;;5042198;28;20029;-77
2023/02/22 01:20:16;;;;;;;81.95;27.20;;;8.70;99.90;;;;;;5041197;28;20068;-75
2023/02/22 01:22:47;;;;;;;72.15;26.52;;;8.70;99.90;;;;;;5024718;28;20088;-77
2023/02/22 01:25:17;;;;;;;73.35;26.25;;;8.70;99.90;;;;;;5039553;28;20447;-77
2023/02/22 01:27:43;;;;;;;74.90;26.35;;;8.70;99.90;;;;;;5040801;28;20032;-77
2023/02/22 01:30:12;;;;;;;85.80;27.70;;;8.70;99.90;;;;;;5023308;28;20021;-77
2023/02/22 01:32:40;;;;;;;78.07;25.63;;;8.70;99.90;;;;;;5045504;28;20071;-76
2023/02/22 01:35:12;;;;;;;73.90;26.15;;;8.70;99.90;;;;;;5040586;28;20025;-76
2023/02/22 01:37:39;;;;;;;74.28;25.60;;;8.70;99.90;;;;;;5039920;28;20535;-77
2023/02/22 01:40:07;;;;;;;74.05;25.77;;;8.70;99.90;;;;;;5042833;28;20084;-77
2023/02/22 01:42:33;;;;;;;71.43;25.35;;;8.70;99.90;;;;;;5038859;28;20083;-77
2023/02/22 01:45:33;;;;;;;74.53;26.10;;;8.60;99.90;;;;;;5032066;28;20483;-77
2023/02/22 01:48:13;;;;;;;69.70;24.60;;;8.60;99.90;;;;;;5038976;28;20053;-76
2023/02/22 01:50:54;;;;;;;62.47;23.07;;;8.60;99.90;;;;;;5041017;28;20080;-76
2023/02/22 01:53:25;;;;;;;73.60;24.13;;;8.60;99.90;;;;;;5045981;28;20061;-76
2023/02/22 01:55:53;;;;;;;68.85;23.50;;;8.70;99.90;;;;;;5040953;28;20441;-76
2023/02/22 01:58:20;;;;;;;71.05;25.67;;;8.70;99.90;;;;;;5040964;28;20029;-77
2023/02/22 02:00:46;;;;;;;76.97;25.52;;;8.70;99.90;;;;;;5038684;28;20032;-77
2023/02/22 02:03:34;;;;;;;64.50;23.52;;;8.60;99.90;;;;;;5038647;28;20051;-77
2023/02/22 02:06:03;;;;;;;65.22;24.08;;;8.70;99.90;;;;;;5036948;28;20079;-76
2023/02/22 02:08:58;;;;;;;69.10;24.65;;;8.60;99.90;;;;;;5039355;28;20021;-76
2023/02/22 02:11:25;;;;;;;71.22;25.27;;;8.60;99.90;;;;;;5046299;28;20021;-77
2023/02/22 02:13:54;;;;;;;60.97;22.90;;;8.60;99.90;;;;;;5020815;28;20024;-76
2023/02/22 02:16:24;;;;;;;55.78;21.52;;;8.60;99.90;;;;;;5024090;28;20030;-77
2023/02/22 02:18:51;;;;;;;62.35;22.70;;;8.60;99.90;;;;;;5040675;28;20087;-76
2023/02/22 02:21:48;;;;;;;58.00;21.42;;;8.60;99.90;;;;;;5040553;28;20033;-77
2023/02/22 02:24:32;;;;;;;62.90;22.63;;;8.60;99.90;;;;;;5037990;28;20044;-76
2023/02/22 02:27:22;;;;;;;67.20;23.08;;;8.60;99.90;;;;;;5040004;28;20032;-77
2023/02/22 02:30:34;;;;;;;64.50;23.63;;;8.60;99.90;;;;;;5038820;28;20025;-77
2023/02/22 02:33:11;;;;;;;61.15;23.85;;;8.60;99.90;;;;;;5037592;28;20469;-77
2023/02/22 02:36:12;;;;;;;57.05;22.23;;;8.60;99.90;;;;;;5037686;28;20091;-77
2023/02/22 02:38:54;;;;;;;66.60;24.02;;;8.60;99.90;;;;;;5008984;28;20041;-77
2023/02/22 02:41:41;;;;;;;63.70;23.70;;;8.60;99.90;;;;;;5021899;28;20036;-75
2023/02/22 02:44:28;;;;;;;65.90;25.67;;;8.60;99.90;;;;;;5044209;28;20033;-77
2023/02/22 02:47:08;;;;;;;77.60;27.65;;;8.60;99.90;;;;;;5046332;28;20029;-77
2023/02/22 02:49:52;;;;;;;75.93;25.98;;;8.60;99.90;;;;;;5039178;28;20399;-76
2023/02/22 02:52:22;;;;;;;87.80;26.88;;;8.60;99.90;;;;;;5040094;28;20619;-77
2023/02/22 02:54:49;;;;;;;84.07;27.50;;;8.60;99.90;;;;;;5043417;28;20036;-76
2023/02/22 02:57:15;;;;;;;72.20;26.20;;;8.60;99.90;;;;;;5035834;28;20029;-76
2023/02/22 02:59:41;;;;;;;83.72;26.38;;;8.60;99.90;;;;;;5041181;28;20068;-76
2023/02/22 03:02:07;;;;;;;78.90;26.23;;;8.60;99.90;;;;;;5042188;28;20615;-76
2023/02/22 03:05:13;;;;;;;75.50;23.35;;;8.60;99.90;;;;;;5043091;28;20025;-76
2023/02/22 03:07:48;;;;;;;86.13;25.70;;;8.60;99.90;;;;;;5026010;28;20045;-77
2023/02/22 03:10:20;;;;;;;74.18;23.65;;;8.50;99.90;;;;;;5039265;28;20024;-76
2023/02/22 03:13:00;;;;;;;84.38;26.20;;;8.60;99.90;;;;;;5039646;28;20076;-77
2023/02/22 03:15:58;;;;;;;74.88;22.85;;;8.50;99.90;;;;;;5039421;28;20032;-76
2023/02/22 03:18:47;;;;;;;78.78;23.63;;;8.50;99.90;;;;;;5040335;28;20053;-76
2023/02/22 03:21:20;;;;;;;71.68;22.27;;;8.50;99.90;;;;;;5039618;28;20047;-76
2023/02/22 03:23:49;;;;;;;72.35;24.45;;;8.50;99.90;;;;;;5038276;28;20024;-77
2023/02/22 03:26:24;;;;;;;63.85;23.25;;;8.60;99.90;;;;;;5041026;28;21751;-77
2023/02/22 03:28:52;;;;;;;62.45;23.25;;;8.50;99.90;;;;;;5040743;28;20108;-77
2023/02/22 03:31:42;;;;;;;57.83;21.83;;;8.50;99.90;;;;;;5038948;28;20021;-76
2023/02/22 03:34:12;;;;;;;67.32;23.90;;;8.50;99.90;;;;;;5042955;28;20032;-76
2023/02/22 03:36:51;;;;;;;57.45;22.23;;;8.50;99.90;;;;;;5037485;28;20118;-77
2023/02/22 03:39:19;;;;;;;56.20;22.27;;;8.50;99.90;;;;;;5037716;28;20112;-77
2023/02/22 03:41:50;;;;;;;56.03;23.17;;;8.50;99.90;;;;;;5040698;28;20057;-77
2023/02/22 03:44:19;;;;;;;;;;;8.50;99.90;;;;;;5024263;28;20037;-77
2023/02/22 03:46:49;;;;;;;64.43;23.52;;;8.50;99.90;;;;;;5041169;28;19913;-75
2023/02/22 03:49:33;;;;;;;59.05;23.90;;;8.50;99.90;;;;;;5044418;28;20025;-76
2023/02/22 03:52:00;;;;;;;61.75;24.20;;;8.50;99.90;;;;;;5043274;28;20028;-77
2023/02/22 03:54:27;;;;;;;59.20;24.33;;;8.50;99.90;;;;;;5039072;28;20029;-77
2023/02/22 03:57:01;;;;;;;64.72;24.77;;;8.50;99.90;;;;;;5039747;28;20029;-76
2023/02/22 03:59:28;;;;;;;64.18;25.63;;;8.50;99.90;;;;;;5021934;28;20037;-76
2023/02/22 04:01:55;;;;;;;62.67;25.02;;;8.40;99.90;;;;;;5038765;28;20742;-77
2023/02/22 04:04:22;;;;;;;64.43;25.58;;;8.40;99.90;;;;;;5034559;28;20030;-77
2023/02/22 04:06:48;;;;;;;59.30;22.48;;;8.40;99.90;;;;;;5040852;28;20040;-76
2023/02/22 04:09:15;;;;;;;59.63;23.15;;;8.50;99.90;;;;;;5039664;28;20025;-75
2023/02/22 04:11:40;;;;;;;58.47;23.88;;;8.40;99.90;;;;;;5021596;28;20051;-77
2023/02/22 04:14:06;;;;;;;56.38;23.23;;;8.40;99.90;;;;;;5039333;28;20024;-77
2023/02/22 04:16:32;;;;;;;54.88;22.65;;;8.50;99.90;;;;;;5027535;28;20033;-76
2023/02/22 04:18:57;;;;;;;56.28;23.13;;;8.50;99.90;;;;;;5037381;28;20025;-76
2023/02/22 04:21:23;;;;;;;54.63;22.35;;;8.50;99.90;;;;;;5044129;28;20029;-77
2023/02/22 04:23:49;;;;;;;57.95;22.92;;;8.50;99.90;;;;;;5039226;28;20033;-77
2023/02/22 04:26:15;;;;;;;52.45;22.63;;;8.50;99.90;;;;;;5039566;28;21471;-76
2023/02/22 04:28:41;;;;;;;58.08;22.67;;;8.50;99.90;;;;;;5024878;28;20051;-76
2023/02/22 04:31:06;;;;;;;46.00;20.65;;;8.50;99.90;;;;;;5047427;28;20504;-77
2023/02/22 04:33:32;;;;;;;54.08;22.73;;;8.50;99.90;;;;;;5042467;28;20485;-78
2023/02/22 04:35:58;;;;;;;58.60;23.40;;;8.50;99.90;;;;;;5040510;28;20087;-76
2023/02/22 04:38:25;;;;;;;48.38;21.52;;;8.50;99.90;;;;;;5042837;28;20485;-77
2023/02/22 04:40:54;;;;;;;49.05;21.98;;;8.50;99.90;;;;;;5043331;28;20072;-77
2023/02/22 04:43:21;;;;;;;49.53;22.15;;;8.50;99.90;;;;;;5040881;28;20026;-77
2023/02/22 04:45:46;;;;;;;50.28;21.58;;;8.50;99.90;;;;;;5040807;28;20045;-77
2023/02/22 04:48:12;;;;;;;57.60;22.95;;;8.50;99.90;;;;;;5042307;28;20100;-77
2023/02/22 04:50:39;;;;;;;54.88;22.58;;;8.50;99.90;;;;;;5041648;28;20034;-76
2023/02/22 04:53:05;;;;;;;54.80;22.92;;;8.60;99.90;;;;;;5042133;28;20074;-76
2023/02/22 04:55:31;;;;;;;49.58;22.42;;;8.50;99.90;;;;;;5041720;28;20055;-77
2023/02/22 04:57:56;;;;;;;56.08;22.42;;;8.50;99.90;;;;;;5044680;28;20033;-76
2023/02/22 05:00:22;;;;;;;56.40;22.85;;;8.60;99.90;;;;;;5041025;28;20029;-77
2023/02/22 05:02:49;;;;;;;60.83;23.30;;;8.60;99.90;;;;;;5041875;28;20082;-77
2023/02/22 05:05:18;;;;;;;53.15;22.98;;;8.50;99.90;;;;;;5041548;28;20077;-76
2023/02/22 05:07:44;;;;;;;49.55;20.45;;;8.60;99.90;;;;;;5042490;28;20038;-75
2023/02/22 05:10:11;;;;;;;49.33;19.88;;;8.60;99.90;;;;;;5034836;28;20021;-76
2023/02/22 05:12:37;;;;;;;59.70;22.73;;;8.60;99.90;;;;;;5042426;28;20087;-77
2023/02/22 05:15:05;;;;;;;61.65;23.63;;;8.60;99.90;;;;;;5041109;28;20052;-76
2023/02/22 05:17:31;;;;;;;59.72;23.92;;;8.60;99.90;;;;;;5043662;28;20025;-74
2023/02/22 05:19:56;;;;;;;64.95;23.17;;;8.50;99.90;;;;;;5041277;28;20382;-77
2023/02/22 05:22:23;;;;;;;61.55;22.55;;;8.60;99.90;;;;;;5040972;28;20044;-77
2023/02/22 05:24:51;;;;;;;58.80;23.45;;;8.50;99.90;;;;;;5039124;28;20106;-78
2023/02/22 05:27:17;;;;;;;67.55;23.33;;;8.60;99.90;;;;;;5042125;28;20093;-77
2023/02/22 05:29:43;;;;;;;66.53;24.83;;;8.50;99.90;;;;;;5038816;28;20040;-78
2023/02/22 05:32:11;;;;;;;65.20;22.70;;;8.60;99.90;;;;;;5039101;28;20025;-75
2023/02/22 05:34:37;;;;;;;62.22;21.70;;;8.60;99.90;;;;;;5041521;28;20512;-76
2023/02/22 05:37:03;;;;;;;64.15;23.27;;;8.60;99.90;;;;;;5039577;28;20028;-75
2023/02/22 05:39:30;;;;;;;62.22;24.05;;;8.60;99.90;;;;;;5039726;28;20052;-75
2023/02/22 05:41:56;;;;;;;73.55;24.35;;;8.60;99.90;;;;;;5040380;28;20495;-76
2023/02/22 05:44:22;;;;;;;64.47;22.83;;;8.60;99.90;;;;;;5032927;28;20051;-81
2023/02/22 05:46:48;;;;;;;73.35;25.27;;;8.60;99.90;;;;;;5035473;28;20029;-76
2023/02/22 05:49:14;;;;;;;67.35;24.75;;;8.60;99.90;;;;;;5039812;28;20489;-76
2023/02/22 05:51:40;;;;;;;71.30;24.67;;;8.60;99.90;;;;;;5025613;28;20126;-82
2023/02/22 05:54:06;;;;;;;63.83;23.88;;;8.60;99.90;;;;;;5041639;28;20576;-75
2023/02/22 05:56:32;;;;;;;71.43;23.55;;;8.60;99.90;;;;;;5038456;28;20124;-76
2023/02/22 05:58:58;;;;;;;74.82;24.23;;;8.60;99.90;;;;;;5036439;28;20072;-75
2023/02/22 06:01:24;;;;;;;74.55;25.05;;;8.60;99.90;;;;;;5034773;28;20025;-76
2023/02/22 06:06:26;;;;;;;83.20;26.73;;;8.70;99.90;;;;;;5239386;23;20054;-77
2023/02/22 06:08:51;;;;;;;92.97;27.90;;;8.60;99.90;;;;;;4993909;28;20381;-75
2023/02/22 06:11:18;;;;;;;81.80;27.65;;;8.60;99.90;;;;;;5011963;28;20107;-74
2023/02/22 06:13:52;;;;;;;82.47;27.88;;;8.60;99.90;;;;;;4992395;28;20025;-76
2023/02/22 06:16:20;;;;;;;81.10;25.75;;;8.60;99.90;;;;;;5003517;28;20034;-76
2023/02/22 06:18:47;;;;;;;84.55;26.67;;;8.60;99.90;;;;;;5022248;22;20168;-75
2023/02/22 06:21:17;;;;;;;73.20;24.98;;;8.60;99.90;;;;;;4993626;28;20026;-75
2023/02/22 06:23:43;;;;;;;75.68;26.17;;;8.60;99.90;;;;;;5014962;28;20026;-76
2023/02/22 06:26:09;;;;;;;88.22;28.90;;;8.60;99.90;;;;;;4995767;28;20112;-74
2023/02/22 06:28:34;;;;;;;87.68;26.95;;;8.60;99.90;;;;;;4996050;28;20025;-74
2023/02/22 06:31:00;;;;;;;96.25;30.33;;;8.60;99.90;;;;;;4997931;28;20377;-74
2023/02/22 06:33:26;;;;;;;92.63;29.27;;;8.60;99.90;;;;;;5003113;28;20088;-73
2023/02/22 06:35:52;;;;;;;84.68;25.70;;;8.60;99.90;;;;;;5001634;28;20064;-74
2023/02/22 06:38:24;;;;;;;79.55;23.85;;;8.60;99.90;;;;;;5011712;28;20118;-74
2023/02/22 06:40:50;;;;;;;97.32;27.55;;;8.60;99.90;;;;;;4997624;28;20038;-75
2023/02/22 06:43:16;;;;;;;39.45;12.75;;;8.60;99.90;;;;;;4982031;28;20026;-77
2023/02/22 06:45:42;;;;;;;41.60;14.85;;;10.10;99.90;;;;;;5000319;28;20040;-75
2023/02/22 06:48:08;;;;;;;70.03;24.45;;;11.50;99.90;;;;;;5001565;28;20025;-75
2023/02/22 06:50:34;;;;;;;69.75;24.05;;;10.70;99.90;;;;;;4999701;28;20089;-75
2023/02/22 06:53:02;;;;;;;71.25;25.02;;;10.00;99.90;;;;;;4994863;28;21548;-75
2023/02/22 06:55:31;;;;;;;68.65;23.88;;;9.80;99.90;;;;;;4998333;28;20033;-78
2023/02/22 06:57:58;;;;;;;68.03;22.35;;;9.60;99.90;;;;;;5002820;28;20144;-76
2023/02/22 07:00:25;;;;;;;72.28;25.23;;;9.90;99.90;;;;;;4983390;28;20033;-76
2023/02/22 07:02:52;;;;;;;73.22;24.13;;;9.60;99.90;;;;;;4996564;28;20501;-76
2023/02/22 07:05:20;;;;;;;65.88;22.13;;;9.30;99.90;;;;;;5001395;28;20042;-76
2023/02/22 07:07:47;;;;;;;71.32;24.23;;;9.20;99.90;;;;;;4985553;28;20524;-75
2023/02/22 07:10:20;;;;;;;66.80;22.75;;;9.10;99.90;;;;;;5002511;28;20092;-74
2023/02/22 07:12:47;;;;;;;69.25;22.88;;;9.00;99.90;;;;;;5000830;28;20049;-76
2023/02/22 07:15:16;;;;;;;64.78;22.17;;;8.90;99.90;;;;;;5001787;28;20152;-77
2023/02/22 07:17:42;;;;;;;68.95;23.45;;;8.90;99.90;;;;;;4985976;28;20100;-76
2023/02/22 07:20:10;;;;;;;67.13;20.60;;;8.90;99.90;;;;;;5001997;28;20022;-75
2023/02/22 07:22:37;;;;;;;66.40;21.67;;;8.80;99.90;;;;;;4988409;28;20409;-79
2023/02/22 07:25:11;;;;;;;45.58;16.17;;;8.80;99.90;;;;;;5001605;28;20052;-77
2023/02/22 07:27:40;;;;;;;60.53;20.25;;;9.30;99.90;;;;;;5004210;28;20068;-77
2023/02/22 07:30:16;;;;;;;48.42;18.45;;;9.80;99.90;;;;;;5002292;28;20033;-80
2023/02/22 07:32:42;;;;;;;56.95;21.27;;;9.90;99.90;;;;;;4987706;28;20095;-77
2023/02/22 07:35:21;;;;;;;59.72;20.83;;;9.60;99.90;;;;;;5001359;28;20030;-77
2023/02/22 07:37:47;;;;;;;52.53;19.88;;;9.40;99.90;;;;;;4999590;28;20018;-76
2023/02/22 07:40:14;;;;;;;52.20;20.20;;;9.20;99.90;;;;;;5000449;28;20026;-77
2023/02/22 07:43:09;;;;;;;51.40;20.20;;;9.20;99.90;;;;;;5002204;28;20090;-77
2023/02/22 07:45:35;;;;;;;49.22;19.17;;;9.10;99.90;;;;;;5008366;28;20402;-78
2023/02/22 07:48:03;;;;;;;56.88;20.30;;;9.10;99.90;;;;;;5003412;28;20026;-76
2023/02/22 07:50:31;;;;;;;52.90;19.98;;;9.10;99.90;;;;;;4999833;28;20133;-77
2023/02/22 07:52:58;;;;;;;53.25;19.27;;;9.00;99.90;;;;;;5001330;28;20523;-77
2023/02/22 07:55:26;;;;;;;44.28;18.50;;;9.00;99.90;;;;;;5004977;28;20096;-76
2023/02/22 07:57:55;;;;;;;49.92;19.30;;;9.00;99.90;;;;;;5002379;28;20025;-77
2023/02/22 08:00:31;;;;;;;50.53;19.80;;;9.00;99.90;;;;;;5000489;28;20037;-77
2023/02/22 08:02:59;;;;;;;54.65;18.95;;;9.00;99.90;;;;;;4986050;28;20090;-79
2023/02/22 08:05:26;;;;;;;50.95;19.85;;;9.00;99.90;;;;;;4988629;28;20088;-78
2023/02/22 08:07:52;;;;;;;49.15;19.20;;;9.00;99.90;;;;;;5021651;28;20019;-76
2023/02/22 08:10:21;;;;;;;46.53;18.40;;;9.00;99.90;;;;;;5011092;28;20068;-77
2023/02/22 08:12:48;;;;;;;48.45;18.20;;;9.00;99.90;;;;;;5004454;28;20054;-78
2023/02/22 08:15:28;;;;;;;48.22;18.45;;;9.00;99.90;;;;;;5004253;28;20068;-77
2023/02/22 08:17:55;;;;;;;45.47;17.98;;;9.00;99.90;;;;;;4988386;28;20034;-77
2023/02/22 08:20:21;;;;;;;52.13;19.33;;;9.00;99.90;;;;;;5004253;28;20113;-77
2023/02/22 08:22:47;;;;;;;45.92;18.90;;;9.00;99.90;;;;;;5006200;28;20101;-77
2023/02/22 08:25:14;;;;;;;44.30;18.75;;;9.00;99.90;;;;;;5006067;28;20029;-77
2023/02/22 08:27:40;;;;;;;49.83;19.00;;;9.00;99.90;;;;;;5003061;28;20084;-77
2023/02/22 08:30:07;;;;;;;46.88;18.55;;;9.00;99.90;;;;;;5018534;28;20037;-76
2023/02/22 08:32:36;;;;;;;45.70;18.48;;;9.10;99.90;;;;;;5004362;28;20577;-78
2023/02/22 08:35:03;;;;;;;47.60;19.63;;;9.10;99.90;;;;;;5005705;28;20049;-78
2023/02/22 08:37:28;;;;;;;49.45;19.95;;;9.20;99.90;;;;;;4987219;28;20389;-77
2023/02/22 08:39:54;;;;;;;44.63;18.23;;;9.10;99.90;;;;;;5006304;28;20022;-78
2023/02/22 08:42:21;;;;;;;43.78;18.65;;;9.20;99.90;;;;;;5002817;28;20040;-78
2023/02/22 08:44:46;;;;;;;47.42;18.67;;;9.20;99.90;;;;;;5008330;28;20089;-78
2023/02/22 08:47:12;;;;;;;38.70;17.45;;;9.10;99.90;;;;;;5006741;28;20161;-76
2023/02/22 08:49:38;;;;;;;42.05;18.30;;;9.20;99.90;;;;;;4987398;28;20025;-77
2023/02/22 08:52:04;;;;;;;42.35;18.90;;;9.20;99.90;;;;;;4989063;28;20033;-76
2023/02/22 08:54:30;;;;;;;39.40;17.42;;;9.20;99.90;;;;;;5007128;28;20048;-76
2023/02/22 08:56:56;;;;;;;38.60;17.67;;;9.20;99.90;;;;;;5019763;28;20026;-77
2023/02/22 08:59:21;;;;;;;38.72;18.65;;;9.10;99.90;;;;;;5004907;28;20513;-78
2023/02/22 09:01:47;;;;;;;40.72;18.73;;;9.10;99.90;;;;;;4988439;28;20029;-78
2023/02/22 09:04:13;;;;;;;42.63;18.98;;;9.10;99.90;;;;;;5003865;28;20026;-79
2023/02/22 09:06:47;;;;;;;41.13;19.10;;;9.20;99.90;;;;;;5019939;28;20089;-78
2023/02/22 09:09:12;;;;;;;42.40;18.33;;;9.20;99.90;;;;;;5004215;28;20037;-77
2023/02/22 09:11:38;;;;;;;34.15;16.88;;;9.30;99.90;;;;;;5005943;28;20030;-76
2023/02/22 09:14:04;;;;;;;39.95;17.70;;;9.30;99.90;;;;;;5003768;28;20037;-77
2023/02/22 09:16:30;;;;;;;41.03;18.98;;;9.30;99.90;;;;;;5003336;28;20023;-77
2023/02/22 09:18:56;;;;;;;42.78;20.08;;;9.20;99.90;;;;;;5006493;28;20049;-77
2023/02/22 09:21:21;;;;;;;45.83;20.15;;;9.20;99.90;;;;;;4988663;28;20397;-76
2023/02/22 09:23:47;;;;;;;50.83;22.45;;;9.20;99.90;;;;;;5003783;28;20075;-76
2023/02/22 09:26:14;;;;;;;51.10;23.45;;;9.10;99.90;;;;;;5002994;28;20108;-77
2023/02/22 09:28:41;;;;;;;52.65;23.25;;;9.10;99.90;;;;;;5004915;28;20029;-76
2023/02/22 09:31:07;;;;;;;47.42;23.02;;;9.10;99.90;;;;;;4985456;28;20134;-77
2023/02/22 09:33:33;;;;;;;51.42;23.02;;;9.20;99.90;;;;;;4987906;28;20133;-77
2023/02/22 09:36:00;;;;;;;50.08;22.10;;;9.10;99.90;;;;;;4985725;28;20654;-77
2023/02/22 09:38:28;;;;;;;50.17;22.30;;;9.10;99.90;;;;;;5004264;28;20167;-77
2023/02/22 09:41:18;;;;;;;46.83;21.40;;;9.10;99.90;;;;;;5020313;28;20937;-78
2023/02/22 09:44:05;;;;;;;48.15;21.25;;;9.10;99.90;;;;;;5002938;28;20042;-76
2023/02/22 09:46:37;;;;;;;47.05;21.08;;;9.10;99.90;;;;;;4985976;28;20394;-77
2023/02/22 09:49:21;;;;;;;46.88;19.98;;;9.10;99.90;;;;;;5002540;28;20034;-77
2023/02/22 09:52:04;;;;;;;52.10;22.85;;;9.20;99.90;;;;;;5003413;28;20243;-77
2023/02/22 09:54:43;;;;;;;45.75;19.77;;;9.20;99.90;;;;;;5005977;28;20361;-77
2023/02/22 09:57:18;;;;;;;50.72;22.63;;;9.20;99.90;;;;;;5005262;28;20061;-77
2023/02/22 10:00:14;;;;;;;46.63;20.20;;;9.30;99.90;;;;;;5004861;28;20041;-77
2023/02/22 10:02:55;;;;;;;39.88;18.85;;;9.20;99.90;;;;;;5002058;28;20121;-77
2023/02/22 10:05:32;;;;;;;39.50;19.45;;;9.30;99.90;;;;;;5003495;28;20018;-76
2023/02/22 10:08:28;;;;;;;38.00;17.23;;;9.20;99.90;;;;;;5002794;28;20033;-78
2023/02/22 10:11:07;;;;;;;37.78;16.75;;;9.30;99.90;;;;;;4986915;28;20084;-77
2023/02/22 10:13:38;;;;;;;36.75;16.73;;;9.30;99.90;;;;;;5002851;28;20057;-76
2023/02/22 10:16:10;;;;;;;36.17;16.52;;;9.30;99.90;;;;;;5002436;28;20030;-76
2023/02/22 10:18:42;;;;;;;37.67;16.65;;;9.40;99.90;;;;;;5004476;28;20523;-76
2023/02/22 10:21:08;;;;;;;33.35;15.93;;;9.50;99.90;;;;;;5001660;28;20088;-78
2023/02/22 10:23:46;;;;;;;34.08;15.80;;;9.60;99.90;;;;;;5004817;28;20038;-78
2023/02/22 10:26:18;;;;;;;33.42;16.58;;;9.60;99.90;;;;;;5001758;28;20042;-77
2023/02/22 10:29:29;;;;;;;30.58;14.48;;;9.70;99.90;;;;;;5002784;28;20397;-76
2023/02/22 10:32:02;;;;;;;34.95;15.73;;;9.80;99.90;;;;;;4964345;28;20529;-78
2023/02/22 10:34:35;;;;;;;35.35;16.48;;;10.00;99.90;;;;;;4985832;28;20043;-77
2023/02/22 10:37:22;;;;;;;33.33;15.75;;;10.10;99.90;;;;;;4967932;28;20038;-77
2023/02/22 10:39:51;;;;;;;38.80;17.33;;;10.30;99.90;;;;;;4955838;28;20030;-77
2023/02/22 10:42:21;;;;;;;31.77;17.63;;;10.50;99.90;;;;;;4968486;28;20045;-77
2023/02/22 10:44:47;;;;;;;35.42;18.98;;;10.80;99.90;;;;;;4968218;28;20050;-77
2023/02/22 10:47:14;;;;;;;33.75;17.70;;;10.90;99.90;;;;;;4969600;28;20120;-77
2023/02/22 10:49:45;;;;;;;34.78;18.23;;;11.10;99.90;;;;;;4969073;28;20133;-77
2023/02/22 10:52:32;;;;;;;34.03;17.35;;;11.10;99.90;;;;;;4968594;28;20038;-77
2023/02/22 10:54:59;;;;;;;30.52;17.73;;;11.50;99.90;;;;;;4971906;28;20033;-77
2023/02/22 10:57:34;;;;;;;34.58;18.20;;;12.00;99.90;;;;;;4968582;28;20027;-77
2023/02/22 11:00:25;;;;;;;28.02;16.52;;;12.20;99.90;;;;;;4967323;28;20165;-78
2023/02/22 11:03:02;;;;;;;28.67;16.23;;;13.10;99.90;;;;;;4966883;28;20042;-78
2023/02/22 11:05:36;;;;;;;26.13;16.40;;;13.90;99.90;;;;;;4965105;28;20027;-77
2023/02/22 11:08:21;;;;;;;23.83;14.80;;;14.60;99.90;;;;;;4969471;28;20031;-77
2023/02/22 11:11:20;;;;;;;25.77;16.10;;;14.80;99.90;;;;;;5002003;28;20029;-76
2023/02/22 11:13:56;;;;;;;24.27;15.23;;;14.90;99.90;;;;;;5004388;28;20357;-77
2023/02/22 11:16:31;;;;;;;24.70;15.85;;;15.70;99.90;;;;;;5006071;28;20034;-77
2023/02/22 11:19:39;;;;;;;22.00;14.55;;;15.70;99.90;;;;;;5004173;28;20038;-77
2023/02/22 11:22:19;;;;;;;22.58;14.93;;;15.60;99.90;;;;;;4980330;28;20033;-76
2023/02/22 11:24:51;;;;;;;23.23;15.20;;;16.20;99.90;;;;;;4979408;28;20027;-77
2023/02/22 11:27:40;;;;;;;21.67;15.20;;;15.80;99.90;;;;;;4980273;28;20100;-77
2023/02/22 11:30:19;;;;;;;20.98;15.05;;;15.20;99.90;;;;;;4965640;28;20031;-77
2023/02/22 11:32:47;;;;;;;23.35;15.00;;;14.70;99.90;;;;;;4981192;28;20038;-78
2023/02/22 11:35:27;;;;;;;23.15;15.32;;;14.60;99.90;;;;;;4980679;28;20034;-77
2023/02/22 11:38:08;;;;;;;23.85;15.75;;;14.10;99.90;;;;;;4982067;28;20027;-76
2023/02/22 11:40:34;;;;;;;21.83;15.23;;;13.90;99.90;;;;;;4967472;28;20037;-78
2023/02/22 11:43:17;;;;;;;23.33;15.27;;;13.80;99.90;;;;;;4966748;28;20027;-77
2023/02/22 11:46:06;;;;;;;24.38;15.95;;;13.50;99.90;;;;;;4984037;28;20074;-77
2023/02/22 11:48:35;;;;;;;26.35;16.17;;;13.30;99.90;;;;;;4967213;28;20039;-74
2023/02/22 11:51:15;;;;;;;27.27;17.23;;;13.20;99.90;;;;;;4966137;28;20038;-76
2023/02/22 11:53:43;;;;;;;24.80;16.30;;;12.80;99.90;;;;;;5011671;28;20485;-77
2023/02/22 11:56:29;;;;;;;27.85;16.88;;;12.80;99.90;;;;;;5000947;28;20033;-77
2023/02/22 11:59:21;;;;;;;29.63;16.98;;;12.60;99.90;;;;;;5002453;28;20393;-77
2023/02/22 12:01:55;;;;;;;29.65;17.02;;;12.60;99.90;;;;;;5001600;28;20064;-77
2023/02/22 12:04:46;;;;;;;28.13;17.25;;;12.40;99.90;;;;;;5001200;28;20026;-77
2023/02/22 12:07:17;;;;;;;27.67;16.23;;;12.30;99.90;;;;;;4989067;28;20057;-76
2023/02/22 12:10:08;;;;;;;28.35;17.17;;;12.20;99.90;;;;;;5003530;28;20033;-78
2023/02/22 12:12:52;;;;;;;34.65;19.55;;;12.20;99.90;;;;;;5005281;28;20037;-76
2023/02/22 12:15:56;;;;;;;31.95;18.27;;;12.20;99.90;;;;;;4998867;28;20030;-78
2023/02/22 12:18:33;;;;;;;31.55;17.77;;;12.30;99.90;;;;;;5015744;22;20064;-79
2023/02/22 12:21:04;;;;;;;29.30;16.30;;;12.20;99.90;;;;;;5021925;28;20514;-77
2023/02/22 12:23:57;;;;;;;26.55;15.68;;;12.10;99.90;;;;;;5025240;28;20014;-79
2023/02/22 12:26:32;;;;;;;24.90;14.25;;;12.10;99.90;;;;;;5024200;28;20097;-73
2023/02/22 12:29:11;;;;;;;27.02;15.93;;;12.10;99.90;;;;;;5018806;28;20038;-77
2023/02/22 12:31:56;;;;;;;28.63;14.75;;;12.30;99.90;;;;;;5018991;28;20041;-77
2023/02/22 12:34:44;;;;;;;28.92;15.68;;;12.20;99.90;;;;;;5025634;28;20029;-77
2023/02/22 12:37:19;;;;;;;29.02;14.73;;;12.30;99.90;;;;;;5026020;28;20025;-76
2023/02/22 12:40:12;;;;;;;24.42;14.35;;;12.50;99.90;;;;;;5019969;28;20022;-76
2023/02/22 12:42:58;;;;;;;26.30;15.43;;;12.60;99.90;;;;;;5020277;28;20531;-75
2023/02/22 12:45:53;;;;;;;26.50;15.57;;;12.60;99.90;;;;;;5019086;28;20875;-77
2023/02/22 12:48:34;;;;;;;352.95;152.50;;;12.50;99.90;;;;;;5014844;28;20109;-77
2023/02/22 12:51:46;;;;;;;363.88;140.52;;;12.80;99.90;;;;;;5019814;28;20025;-77
2023/02/22 12:54:31;;;;;;;33.60;17.50;;;13.50;99.90;;;;;;5006306;28;20103;-77
2023/02/22 12:57:03;;;;;;;26.02;15.15;;;13.20;99.90;;;;;;5021239;28;20122;-76
2023/02/22 12:59:34;;;;;;;24.80;14.15;;;13.00;99.90;;;;;;5023753;28;20022;-74
2023/02/22 13:02:20;;;;;;;20.20;13.20;;;12.70;99.90;;;;;;5014346;28;20025;-77
2023/02/22 13:04:46;;;;;;;23.48;14.60;;;12.60;99.90;;;;;;5011601;28;20460;-77